Ikermiuarsuk

KL  EN  DA
ASIAQ
Weather Now GREENLAND SURVEY
Updated [WGT/WGST] Temperature [°C] Wind [m/s] Air pressure [hPa] Relative humidity [%] Precipitation [mm]
Present Wind chill Speed Max
17.04 23:00n/an/a6,2 ⇓7,7999n/an/a
17.04 22:00n/an/a7,7 ⇓10,8998n/an/a
17.04 21:00n/an/a1,0 ⇓3,1998n/an/a
17.04 20:00n/an/an/an/an/an/an/a
17.04 19:00n/an/a5,1 ⇓7,2997n/an/a
17.04 18:00n/an/a5,7 ⇓7,7997n/an/a
17.04 17:00n/an/a4,1 ⇓4,6996n/an/a
17.04 16:00n/an/a3,1 ⇓3,6996n/an/a
17.04 15:00n/an/a4,1 ⇓5,1996n/an/a
17.04 14:00n/an/a2,1 ⇓3,1995n/an/a
17.04 13:00n/an/a6,2 ⇓7,7995n/an/a
17.04 12:00n/an/a5,1 ⇓6,7994n/an/a
17.04 11:00n/an/a1,0 ⇓2,1994n/an/a
17.04 10:00n/an/a1,5 ⇓2,1993n/an/a
17.04 09:00n/an/a0,5 ⇓1,5992n/an/a
17.04 08:00n/an/a1,0 ⇓1,5991n/an/a
17.04 07:00n/an/a1,5 ⇓2,1990n/an/a
17.04 06:00n/an/a1,0 ⇓1,5989n/an/a
17.04 05:00n/an/a1,0 ⇓1,0987n/an/a
17.04 04:00n/an/a1,0 ⇓1,5986n/an/a
17.04 03:00n/an/a2,1 ⇓3,6985n/an/a
17.04 02:00n/an/a4,1 ⇓5,7984n/an/a
17.04 01:00n/an/a2,6 ⇓4,1983n/an/a
17.04 00:00n/an/a1,5 ⇓3,6983n/an/a
16.04 23:00n/an/a6,7 ⇓8,8982n/an/a
Position: (61.9363888888,-42.0677777777)

[Back]